Orford, New Hampshire
Current Conditions -  °F | °C
As of 12:53 AM on Thursday 23 Oct 2014 (Local Time) from KLEB Reporting Station
Overcast Overcast  
Wind Chill: 50°   Ceiling: 2400
Heat Index: 50°   Visibility: 10mi
Dew Point: 44°   Wind: 9mph
Humidity: 80%   Direction: 10°N
Pressure: 29.94"   Gusts: NA
Location:  43.91°N, 72.14°W
Report Text: KLEB 230453Z AUTO 01008KT 10SM OVC024 10/07 A2994 RMK AO2 RAB24E38 SLP139 P0000 T01000067 401170089
Loading
Personal Weather Stations






























Interactive Weather Map
Tropical Storm Tracking
New forecast layout! Learn more

10-Day Weather Forecast

Advertisements
Track Severe Weather on mobile